Time;durP1;ratioP1;P1;durP2;ratioP2;P2;SDS_P1;SDS_P2;PMS_P1;PMS_P2;Temp;Humidity;BMP_temperature;BMP_pressure;BME280_temperature;BME280_humidity;BME280_pressure;Samples;Min_cycle;Max_cycle;Signal;HPM_P1;HPM_P2
2022/06/22 00:01:36;;;;;;;;;13.75;10.75;;;;;22.21;48.27;100804.03;5068795;28;45577;-66
2022/06/22 00:04:03;;;;;;;;;10.50;10.25;;;;;22.21;48.19;100794.13;5066631;28;45761;-66
2022/06/22 00:06:40;;;;;;;;;10.25;7.25;;;;;22.24;48.21;100798.31;5067568;28;45487;-70
2022/06/22 00:09:07;;;;;;;;;13.25;10.00;;;;;22.23;48.23;100804.69;5062354;28;45884;-68
2022/06/22 00:11:35;;;;;;;;;11.25;11.25;;;;;22.21;48.26;100796.00;5067297;28;45524;-68
2022/06/22 00:14:02;;;;;;;;;11.75;10.75;;;;;22.20;48.25;100799.69;5069602;28;45711;-67
2022/06/22 00:16:36;;;;;;;;;10.00;10.00;;;;;22.19;48.42;100814.06;5066841;28;45403;-68
2022/06/22 00:19:12;;;;;;;;;10.25;8.25;;;;;22.16;48.38;100809.03;5068385;28;45486;-68
2022/06/22 00:21:40;;;;;;;;;11.00;10.50;;;;;22.09;48.73;100808.03;5067768;28;45718;-71
2022/06/22 00:24:24;;;;;;;;;14.00;10.75;;;;;22.07;48.49;100793.91;5068112;28;45454;-71
2022/06/22 00:27:14;;;;;;;;;11.00;10.00;;;;;22.03;48.65;100791.53;5063852;28;45596;-69
2022/06/22 00:29:40;;;;;;;;;11.00;9.00;;;;;22.02;48.83;100778.28;5064891;27;45525;-68
2022/06/22 00:32:26;;;;;;;;;10.25;9.00;;;;;22.00;48.57;100780.31;5062452;28;45544;-68
2022/06/22 00:34:52;;;;;;;;;18.75;16.00;;;;;21.96;48.52;100784.31;5058705;28;45473;-68
2022/06/22 00:37:22;;;;;;;;;11.50;9.50;;;;;21.90;48.71;100788.50;5058586;28;45406;-68
2022/06/22 00:39:51;;;;;;;;;12.25;9.75;;;;;21.83;48.80;100797.34;5059345;28;45369;-67
2022/06/22 00:42:28;;;;;;;;;12.75;11.75;;;;;21.77;48.91;100785.44;5058728;28;45428;-68
2022/06/22 00:45:10;;;;;;;;;11.00;10.75;;;;;21.68;48.85;100781.88;5058516;28;45289;-68
2022/06/22 00:47:41;;;;;;;;;14.00;12.50;;;;;21.60;48.93;100781.00;5062315;28;45421;-67
2022/06/22 00:50:09;;;;;;;;;9.00;9.00;;;;;21.60;48.96;100772.97;5063343;28;45267;-67
2022/06/22 00:52:41;;;;;;;;;13.00;11.75;;;;;21.57;49.11;100779.50;5063408;28;45391;-68
2022/06/22 00:55:33;;;;;;;;;15.00;12.25;;;;;21.56;49.28;100779.63;5063485;28;45226;-68
2022/06/22 00:58:26;;;;;;;;;15.00;12.25;;;;;21.55;49.38;100786.84;5062603;28;45488;-68
2022/06/22 01:01:13;;;;;;;;;10.75;10.75;;;;;21.50;49.34;100780.31;5060781;28;46326;-68
2022/06/22 01:03:46;;;;;;;;;13.75;9.25;;;;;21.50;49.27;100788.34;5063345;28;45516;-68
2022/06/22 01:06:30;;;;;;;;;13.00;11.00;;;;;21.50;49.55;100791.03;5062633;28;45344;-67
2022/06/22 01:09:09;;;;;;;;;13.25;12.00;;;;;21.48;49.52;100785.81;5063143;28;45307;-68
2022/06/22 01:12:16;;;;;;;;;12.50;11.00;;;;;21.44;49.52;100774.56;5063317;28;45998;-68
2022/06/22 01:14:53;;;;;;;;;13.50;11.50;;;;;21.45;49.56;100780.78;5061285;28;45618;-68
2022/06/22 01:17:36;;;;;;;;;14.50;12.75;;;;;21.42;49.22;100783.78;5062887;28;45438;-68
2022/06/22 01:20:11;;;;;;;;;13.50;11.25;;;;;21.41;49.55;100779.44;5064801;28;45600;-68
2022/06/22 01:22:46;;;;;;;;;14.50;10.50;;;;;21.40;50.06;100775.03;5063404;28;45278;-68
2022/06/22 01:25:23;;;;;;;;;13.25;12.00;;;;;21.41;49.53;100776.75;5063458;28;45315;-68
2022/06/22 01:27:49;;;;;;;;;13.00;11.75;;;;;21.40;49.69;100785.75;5062870;28;45493;-67
2022/06/22 01:30:31;;;;;;;;;15.25;12.25;;;;;21.38;49.70;100779.72;5063087;28;45299;-71
2022/06/22 01:32:57;;;;;;;;;12.00;11.00;;;;;21.34;49.72;100767.66;5062745;28;45394;-67
2022/06/22 01:35:27;;;;;;;;;10.75;10.75;;;;;21.28;49.77;100779.84;5062603;28;45585;-68
2022/06/22 01:37:53;;;;;;;;;16.00;14.25;;;;;21.23;49.89;100774.09;5062864;28;45358;-67
2022/06/22 01:40:23;;;;;;;;;13.00;13.00;;;;;21.17;49.60;100777.41;5062872;28;45544;-68
2022/06/22 01:43:06;;;;;;;;;12.25;10.50;;;;;21.14;49.79;100785.75;5062366;28;45225;-68
2022/06/22 01:45:44;;;;;;;;;13.25;11.00;;;;;21.10;49.75;100771.03;5062960;28;45280;-68
2022/06/22 01:48:19;;;;;;;;;13.00;12.00;;;;;21.06;49.84;100766.97;5062788;28;45465;-68
2022/06/22 01:51:01;;;;;;;;;11.25;10.75;;;;;21.06;50.09;100769.63;5062934;28;45363;-68
2022/06/22 01:53:33;;;;;;;;;12.50;11.25;;;;;21.09;50.17;100777.34;5062820;28;46420;-68
2022/06/22 01:56:14;;;;;;;;;11.50;10.50;;;;;21.08;50.24;100775.66;5062479;28;45374;-68
2022/06/22 01:58:53;;;;;;;;;14.25;12.50;;;;;21.09;50.26;100783.56;5060968;28;45476;-68
2022/06/22 02:01:42;;;;;;;;;13.75;11.75;;;;;21.09;50.32;100780.91;5062890;28;45363;-68
2022/06/22 02:04:16;;;;;;;;;13.50;13.50;;;;;21.09;50.38;100774.66;5061980;28;46221;-68
2022/06/22 02:09:53;;;;;;;;;12.75;12.00;;;;;21.05;50.08;100789.38;5062485;28;45426;-68
2022/06/22 02:12:27;;;;;;;;;18.25;11.50;;;;;21.07;50.01;100795.44;5062285;28;45307;-68
2022/06/22 02:15:02;;;;;;;;;14.25;13.50;;;;;21.07;50.29;100790.91;5062348;28;46200;-68
2022/06/22 02:17:32;;;;;;;;;15.50;14.25;;;;;21.07;50.38;100806.97;5062411;28;45353;-68
2022/06/22 02:20:19;;;;;;;;;13.00;12.25;;;;;21.08;50.68;100810.50;5063060;28;45198;-68
2022/06/22 02:22:46;;;;;;;;;15.00;12.25;;;;;21.04;50.43;100801.09;5051763;28;45445;-67
2022/06/22 02:25:14;;;;;;;;;14.00;11.75;;;;;21.01;50.33;100796.88;5061558;28;45404;-68
2022/06/22 02:27:40;;;;;;;;;10.25;8.75;;;;;21.02;50.40;100793.25;5061991;28;45441;-69
2022/06/22 02:30:06;;;;;;;;;11.75;11.25;;;;;21.03;50.39;100780.69;5062141;28;45301;-68
2022/06/22 02:32:37;;;;;;;;;15.25;14.00;;;;;21.02;50.67;100779.00;5062454;28;45408;-68
2022/06/22 02:35:06;;;;;;;;;15.25;12.00;;;;;21.02;50.71;100776.31;5061777;28;45437;-69
2022/06/22 02:37:38;;;;;;;;;11.50;11.00;;;;;21.00;50.50;100765.75;5061905;28;45319;-68
2022/06/22 02:40:08;;;;;;;;;14.75;13.00;;;;;21.00;50.48;100772.94;5060674;28;45398;-68
2022/06/22 02:45:19;;;;;;;;;12.25;11.50;;;;;20.99;50.70;100768.59;5061972;28;45875;-69
2022/06/22 02:47:59;;;;;;;;;12.75;11.00;;;;;20.96;50.60;100775.13;5061661;28;45431;-68
2022/06/22 02:50:28;;;;;;;;;14.50;12.50;;;;;20.92;50.38;100771.06;5062120;28;45481;-68
2022/06/22 02:53:00;;;;;;;;;14.00;14.00;;;;;20.87;50.50;100770.69;5061719;28;45228;-67
2022/06/22 02:55:32;;;;;;;;;12.25;11.75;;;;;20.84;50.64;100773.66;5061554;28;45376;-68
2022/06/22 02:58:00;;;;;;;;;13.50;12.25;;;;;20.81;50.66;100776.69;5061221;28;45896;-67
2022/06/22 03:00:31;;;;;;;;;14.50;12.50;;;;;20.78;51.00;100779.69;5061604;28;45223;-68
2022/06/22 03:03:11;;;;;;;;;15.25;12.50;;;;;20.78;50.77;100787.72;5061332;28;45530;-67
2022/06/22 03:05:39;;;;;;;;;14.75;13.50;;;;;20.72;50.90;100773.09;5061411;28;45229;-67
2022/06/22 03:08:08;;;;;;;;;15.00;14.25;;;;;20.67;50.96;100758.50;5061625;28;45374;-67
2022/06/22 03:10:47;;;;;;;;;15.75;13.00;;;;;20.58;50.94;100746.88;5060928;28;45490;-67
2022/06/22 03:13:41;;;;;;;;;12.00;12.00;;;;;20.56;51.15;100741.69;5061368;28;45478;-67
2022/06/22 03:16:15;;;;;;;;;18.00;16.75;;;;;20.51;50.72;100737.78;5041797;28;47042;-68
2022/06/22 03:18:43;;;;;;;;;12.75;11.75;;;;;20.50;50.91;100742.31;5061762;28;45241;-67
2022/06/22 03:21:13;;;;;;;;;14.25;14.25;;;;;20.50;51.06;100749.50;5061347;28;45437;-67
2022/06/22 03:23:57;;;;;;;;;16.00;13.00;;;;;20.47;51.07;100747.13;5061107;28;45472;-67
2022/06/22 03:26:40;;;;;;;;;14.75;13.25;;;;;20.45;51.31;100743.75;5060936;28;45407;-67
2022/06/22 03:29:41;;;;;;;;;16.00;14.25;;;;;20.40;50.96;100728.16;5061410;28;45523;-67
2022/06/22 03:32:30;;;;;;;;;14.25;14.25;;;;;20.37;51.12;100723.09;5059485;28;45907;-67
2022/06/22 03:35:11;;;;;;;;;15.25;12.75;;;;;20.34;51.39;100710.88;5060662;28;45597;-67
2022/06/22 03:37:47;;;;;;;;;13.50;13.00;;;;;20.29;51.52;100705.13;5061005;28;45408;-67
2022/06/22 03:40:19;;;;;;;;;15.25;14.25;;;;;20.22;51.03;100706.78;5060650;28;45248;-67
2022/06/22 03:42:54;;;;;;;;;16.50;15.00;;;;;20.17;51.10;100722.44;5060825;28;45321;-67
2022/06/22 03:45:37;;;;;;;;;16.75;15.00;;;;;20.11;51.58;100728.38;5061307;28;45441;-67
2022/06/22 03:48:17;;;;;;;;;18.75;15.50;;;;;20.10;51.42;100724.03;5060838;28;45647;-67
2022/06/22 03:50:51;;;;;;;;;13.50;13.00;;;;;20.07;51.47;100710.97;5060942;28;45275;-67
2022/06/22 03:53:29;;;;;;;;;19.75;17.75;;;;;20.07;51.30;100702.97;5061001;28;45387;-67
2022/06/22 03:56:01;;;;;;;;;19.00;17.75;;;;;20.04;51.62;100706.75;5060805;28;45573;-67
2022/06/22 03:58:27;;;;;;;;;16.25;13.50;;;;;20.01;51.47;100699.06;5060919;28;45239;-68
2022/06/22 04:00:54;;;;;;;;;17.00;17.00;;;;;20.03;51.55;100704.25;5061239;28;45530;-67
2022/06/22 04:03:20;;;;;;;;;18.00;15.25;;;;;20.01;51.68;100699.06;5060781;28;45438;-67
2022/06/22 04:05:50;;;;;;;;;15.75;14.75;;;;;20.03;51.95;100701.56;5060731;28;45276;-67
2022/06/22 04:08:27;;;;;;;;;14.00;13.50;;;;;20.06;51.67;100709.28;5060814;28;45300;-67
2022/06/22 04:10:59;;;;;;;;;18.00;16.00;;;;;20.10;51.84;100723.19;5060354;28;45366;-67
2022/06/22 04:13:47;;;;;;;;;30.25;21.75;;;;;20.13;51.73;100722.88;5060740;28;45398;-67
2022/06/22 04:16:29;;;;;;;;;14.00;14.00;;;;;20.13;52.05;100726.38;5058939;28;45639;-67
2022/06/22 04:19:17;;;;;;;;;31.00;21.50;;;;;20.14;52.15;100716.53;5060480;28;45457;-67
2022/06/22 04:21:51;;;;;;;;;22.50;18.00;;;;;20.13;51.98;100728.22;5061266;28;45274;-67
2022/06/22 04:24:42;;;;;;;;;18.75;16.75;;;;;20.11;51.90;100725.72;5064331;28;45533;-67
2022/06/22 04:27:27;;;;;;;;;15.75;15.00;;;;;20.10;52.54;100724.03;5063833;28;45410;-67
2022/06/22 04:30:01;;;;;;;;;17.75;16.50;;;;;20.09;52.41;100722.34;5063901;28;45254;-67
2022/06/22 04:32:48;;;;;;;;;17.25;16.75;;;;;20.10;52.20;100724.03;5063859;28;45326;-67
2022/06/22 04:36:00;;;;;;;;;23.75;17.75;;;;;20.12;52.62;100727.38;5063850;28;45382;-67
2022/06/22 04:38:42;;;;;;;;;16.25;16.25;;;;;20.12;52.37;100734.56;5063748;28;45573;-67
2022/06/22 04:41:25;;;;;;;;;15.75;14.25;;;;;20.14;52.66;100732.56;5063770;28;45295;-67
2022/06/22 04:43:53;;;;;;;;;16.25;14.75;;;;;20.15;52.48;100743.16;5063334;28;45572;-67
2022/06/22 04:46:29;;;;;;;;;15.50;15.25;;;;;20.17;52.16;100743.84;5063602;28;45359;-67
2022/06/22 04:48:59;;;;;;;;;15.50;15.50;;;;;20.18;52.48;100733.97;5063881;28;45518;-68
2022/06/22 04:51:37;;;;;;;;;22.00;17.50;;;;;20.16;52.33;100744.00;5063428;28;45374;-67
2022/06/22 04:54:18;;;;;;;;;15.75;15.00;;;;;20.15;52.26;100739.63;5063589;28;45427;-68
2022/06/22 04:56:49;;;;;;;;;21.00;15.25;;;;;20.15;52.02;100731.63;5063186;28;45304;-68
2022/06/22 04:59:17;;;;;;;;;16.00;15.75;;;;;20.11;52.49;100724.88;5063564;28;45242;-66
2022/06/22 05:01:47;;;;;;;;;15.50;15.50;;;;;20.08;52.47;100737.56;5063442;28;45492;-68
2022/06/22 05:04:20;;;;;;;;;20.25;16.00;;;;;20.05;52.55;100731.66;5063261;28;45363;-68
2022/06/22 05:06:55;;;;;;;;;20.25;18.25;;;;;19.98;52.04;100709.19;5063643;28;45310;-68
2022/06/22 05:09:40;;;;;;;;;19.50;18.00;;;;;19.99;52.08;100711.75;5062241;28;45319;-67
2022/06/22 05:12:14;;;;;;;;;16.00;16.00;;;;;19.95;52.24;100721.03;5062835;28;45181;-68
2022/06/22 05:14:41;;;;;;;;;19.75;18.00;;;;;19.91;52.29;100725.03;5063315;28;45352;-68
2022/06/22 05:17:24;;;;;;;;;19.50;17.25;;;;;19.85;52.57;100725.63;5063218;28;45245;-68
2022/06/22 05:19:53;;;;;;;;;16.50;16.50;;;;;19.80;52.22;100728.75;5065559;28;45378;-68
2022/06/22 05:22:19;;;;;;;;;21.75;20.50;;;;;19.77;52.70;100733.56;5063028;28;45226;-68
2022/06/22 05:24:52;;;;;;;;;17.25;15.75;;;;;19.77;52.77;100718.38;5062645;28;45226;-68
2022/06/22 05:27:23;;;;;;;;;17.00;15.00;;;;;19.75;52.78;100739.06;5061377;28;45281;-68
2022/06/22 05:29:54;;;;;;;;;21.50;16.25;;;;;19.74;52.89;100748.03;5063182;28;45477;-68
2022/06/22 05:32:33;;;;;;;;;17.50;16.50;;;;;19.76;52.76;100739.91;5062668;28;45484;-68
2022/06/22 05:35:01;;;;;;;;;18.00;16.75;;;;;19.73;52.67;100745.53;5061197;28;45454;-67
2022/06/22 05:37:31;;;;;;;;;19.50;17.75;;;;;19.76;52.51;100723.88;5062740;28;45299;-66
2022/06/22 05:39:57;;;;;;;;;20.50;17.50;;;;;19.74;52.45;100713.31;5062752;28;45370;-66
2022/06/22 05:42:24;;;;;;;;;16.75;14.50;;;;;19.72;52.41;100728.66;5069204;28;45368;-66
2022/06/22 05:44:52;;;;;;;;;22.25;17.25;;;;;19.72;52.49;100731.31;5062311;28;45781;-66
2022/06/22 05:47:27;;;;;;;;;20.00;18.75;;;;;19.69;52.41;100720.94;5068860;28;45358;-66
2022/06/22 05:50:11;;;;;;;;;21.50;17.75;;;;;19.70;52.78;100725.28;5062541;28;45283;-66
2022/06/22 05:52:46;;;;;;;;;24.25;22.50;;;;;19.71;52.70;100716.28;5062319;28;46238;-66
2022/06/22 05:55:14;;;;;;;;;16.25;15.50;;;;;19.76;52.79;100723.88;5062085;28;45497;-66
2022/06/22 05:57:54;;;;;;;;;21.75;18.25;;;;;19.73;52.95;100718.81;5062419;28;45493;-66
2022/06/22 06:00:39;;;;;;;;;17.50;16.50;;;;;19.68;52.91;100729.13;5061985;28;45326;-66
2022/06/22 06:03:26;;;;;;;;;19.00;18.00;;;;;19.65;53.18;100726.72;5061702;28;45483;-67
2022/06/22 06:05:58;;;;;;;;;17.75;16.50;;;;;19.62;52.82;100719.03;5062095;28;45375;-66
2022/06/22 06:08:36;;;;;;;;;22.25;16.25;;;;;19.59;52.83;100716.63;5062213;28;45405;-66
2022/06/22 06:11:03;;;;;;;;;19.25;18.00;;;;;19.57;53.21;100708.78;5072511;28;45551;-67
2022/06/22 06:13:38;;;;;;;;;20.00;18.25;;;;;19.57;52.81;100707.94;5061788;28;46065;-67
2022/06/22 06:16:11;;;;;;;;;30.75;27.00;;;;;19.55;52.93;100710.72;5061745;28;45365;-67
2022/06/22 06:18:41;;;;;;;;;19.25;18.25;;;;;19.56;53.21;100715.06;5063209;28;45297;-67
2022/06/22 06:21:17;;;;;;;;;19.25;17.25;;;;;19.59;53.51;100714.84;5070724;28;45418;-67
2022/06/22 06:23:52;;;;;;;;;20.50;19.50;;;;;19.60;52.97;100721.00;5060897;28;45671;-63
2022/06/22 06:29:42;;;;;;;;;19.00;16.00;;;;;19.58;53.62;100717.63;5058109;28;45426;-66
2022/06/22 06:32:27;;;;;;;;;18.00;16.75;;;;;19.61;53.50;100718.19;5061400;28;45314;-66
2022/06/22 06:35:04;;;;;;;;;21.00;19.00;;;;;19.66;53.10;100718.56;5058690;28;46298;-66
2022/06/22 06:37:35;;;;;;;;;16.00;15.00;;;;;19.70;53.22;100730.66;5061238;28;45374;-66
2022/06/22 06:40:01;;;;;;;;;19.75;18.75;;;;;19.70;53.50;100725.28;5060914;28;45314;-66
2022/06/22 06:42:49;;;;;;;;;19.50;19.00;;;;;19.72;53.53;100717.13;5055573;28;45450;-64
2022/06/22 06:45:20;;;;;;;;;17.75;16.50;;;;;19.76;53.81;100714.00;5060509;28;46460;-58
2022/06/22 06:47:51;;;;;;;;;19.25;18.25;;;;;19.80;53.27;100719.88;5056559;28;45374;-66
2022/06/22 06:50:26;;;;;;;;;20.00;16.25;;;;;19.82;53.70;100717.88;5059904;28;45240;-66
2022/06/22 06:53:03;;;;;;;;;23.75;17.50;;;;;19.79;53.52;100710.19;5061169;28;45275;-66
2022/06/22 06:55:46;;;;;;;;;28.50;20.00;;;;;19.84;53.38;100717.75;5069556;28;45347;-66
2022/06/22 06:58:35;;;;;;;;;28.00;19.75;;;;;19.86;53.75;100719.28;5049603;28;45307;-57
2022/06/22 07:01:01;;;;;;;;;26.25;22.00;;;;;19.89;53.40;100732.34;5059836;28;45509;-66
2022/06/22 07:03:36;;;;;;;;;18.50;16.00;;;;;19.90;53.83;100731.34;5060428;28;45483;-66
2022/06/22 07:06:03;;;;;;;;;21.25;16.50;;;;;19.95;53.49;100728.22;5061085;28;45413;-66
2022/06/22 07:08:37;;;;;;;;;20.50;18.25;;;;;19.96;53.52;100736.09;5061121;28;45390;-66
2022/06/22 07:11:14;;;;;;;;;19.50;16.75;;;;;19.97;53.79;100736.94;5061361;28;45320;-66
2022/06/22 07:13:45;;;;;;;;;21.25;18.50;;;;;20.01;53.41;100739.16;5061307;28;45324;-66
2022/06/22 07:16:16;;;;;;;;;20.25;18.75;;;;;20.09;53.76;100735.72;5061011;28;46186;-66
2022/06/22 07:19:12;;;;;;;;;18.00;16.50;;;;;20.12;53.59;100734.56;5061353;28;45355;-66
2022/06/22 07:21:37;;;;;;;;;21.75;19.50;;;;;20.11;53.83;100725.72;5059818;28;45562;-66
2022/06/22 07:24:06;;;;;;;;;19.75;14.50;;;;;20.14;53.85;100717.38;5061467;28;45342;-66
2022/06/22 07:26:42;;;;;;;;;22.75;17.25;;;;;20.18;53.63;100716.09;5060526;28;45501;-66
2022/06/22 07:29:23;;;;;;;;;20.00;17.50;;;;;20.23;53.62;100718.31;5061007;28;45323;-66
2022/06/22 07:31:59;;;;;;;;;20.25;20.25;;;;;20.23;53.78;100721.00;5060433;28;45169;-66
2022/06/22 07:34:38;;;;;;;;;18.00;17.25;;;;;20.21;53.35;100718.44;5061001;28;45252;-66
2022/06/22 07:37:14;;;;;;;;;23.25;20.25;;;;;20.20;53.62;100710.56;5060665;28;46184;-66
2022/06/22 07:39:50;;;;;;;;;19.25;16.75;;;;;20.17;53.85;100713.56;5061076;28;45252;-66
2022/06/22 07:42:15;;;;;;;;;23.50;17.75;;;;;20.16;53.84;100723.44;5060720;28;45325;-66
2022/06/22 07:44:42;;;;;;;;;25.00;23.25;;;;;20.19;53.34;100735.66;5061105;28;45193;-66
2022/06/22 07:47:26;;;;;;;;;30.00;26.00;;;;;20.22;53.86;100729.97;5061054;28;46446;-66
2022/06/22 07:50:00;;;;;;;;;20.75;18.25;;;;;20.25;53.86;100735.03;5060525;28;45265;-66
2022/06/22 07:52:38;;;;;;;;;18.00;16.00;;;;;20.29;53.84;100739.06;5060889;28;45311;-66
2022/06/22 07:55:39;;;;;;;;;18.25;17.50;;;;;20.29;53.41;100742.59;5060767;28;45163;-66
2022/06/22 07:58:33;;;;;;;;;20.00;18.25;;;;;20.29;53.91;100739.91;5060053;28;46091;-66
2022/06/22 08:01:09;;;;;;;;;16.25;16.25;;;;;20.33;53.69;100737.78;5060516;28;45497;-67
2022/06/22 08:04:00;;;;;;;;;22.00;17.50;;;;;20.34;53.42;100737.63;5060435;28;45545;-66
2022/06/22 08:06:40;;;;;;;;;21.75;17.50;;;;;20.35;53.53;100743.81;5060594;28;45409;-67
2022/06/22 08:09:15;;;;;;;;;16.50;14.75;;;;;20.39;53.68;100752.41;5060263;28;46476;-66
2022/06/22 08:12:04;;;;;;;;;20.75;17.00;;;;;20.44;53.79;100760.81;5060052;28;45360;-66
2022/06/22 08:14:38;;;;;;;;;16.75;15.25;;;;;20.50;53.46;100762.88;5059174;28;45410;-67
2022/06/22 08:17:09;;;;;;;;;19.75;16.50;;;;;20.54;53.72;100770.47;5060676;28;45231;-66
2022/06/22 08:19:35;;;;;;;;;22.00;18.00;;;;;20.58;53.60;100765.63;5061761;28;45561;-66
2022/06/22 08:22:06;;;;;;;;;20.75;17.75;;;;;20.63;53.47;100760.66;5060652;28;45375;-67
2022/06/22 08:24:37;;;;;;;;;20.75;19.50;;;;;20.62;53.72;100761.66;5060402;28;45321;-66
2022/06/22 08:27:04;;;;;;;;;21.25;19.00;;;;;20.71;53.46;100765.22;5060270;28;45220;-67
2022/06/22 08:29:33;;;;;;;;;22.50;21.50;;;;;20.75;53.42;100767.41;5060322;28;45892;-66
2022/06/22 08:32:14;;;;;;;;;22.75;20.50;;;;;20.81;53.64;100761.44;5060265;28;45461;-66
2022/06/22 08:34:45;;;;;;;;;23.75;20.00;;;;;20.90;53.37;100756.97;5060764;28;45485;-66
2022/06/22 08:37:17;;;;;;;;;21.50;19.75;;;;;21.02;53.33;100758.41;5060327;28;45462;-66
2022/06/22 08:39:52;;;;;;;;;20.50;20.25;;;;;21.14;53.57;100761.66;5060640;28;45382;-66
2022/06/22 08:42:23;;;;;;;;;21.25;20.75;;;;;21.28;53.55;100760.25;5059717;28;45324;-66
2022/06/22 08:45:22;;;;;;;;;16.00;13.50;;;;;21.40;53.63;100757.13;5060368;28;45298;-66
2022/06/22 08:48:03;;;;;;;;;21.00;17.75;;;;;21.42;53.44;100760.50;5060337;28;45395;-66
2022/06/22 08:50:38;;;;;;;;;23.75;21.00;;;;;21.45;53.15;100748.63;5059915;28;45302;-66
2022/06/22 08:53:12;;;;;;;;;23.50;19.75;;;;;21.52;53.17;100748.81;5060033;28;45280;-66
2022/06/22 08:55:47;;;;;;;;;16.50;14.75;;;;;21.54;52.87;100742.28;5058897;28;45266;-66
2022/06/22 08:58:31;;;;;;;;;22.25;21.50;;;;;21.64;53.14;100739.47;5060057;28;45223;-66
2022/06/22 09:01:02;;;;;;;;;21.75;15.00;;;;;21.75;53.07;100744.53;5059698;28;45224;-66
2022/06/22 09:03:37;;;;;;;;;17.50;17.25;;;;;21.85;52.94;100758.63;5059295;28;45495;-66
2022/06/22 09:06:02;;;;;;;;;18.75;14.50;;;;;21.93;52.93;100763.19;5060026;28;45430;-66
2022/06/22 09:08:55;;;;;;;;;19.00;15.75;;;;;21.99;52.89;100762.53;5062098;28;45313;-66
2022/06/22 09:11:32;;;;;;;;;20.75;18.75;;;;;22.03;52.67;100762.03;5062775;28;45455;-66
2022/06/22 09:14:07;;;;;;;;;18.00;16.50;;;;;22.05;52.61;100755.69;5063250;28;45456;-66
2022/06/22 09:16:47;;;;;;;;;20.75;19.00;;;;;22.14;52.71;100763.59;5063389;28;45306;-66
2022/06/22 09:19:32;;;;;;;;;19.25;17.75;;;;;22.20;52.61;100757.59;5067904;27;45288;-66
2022/06/22 09:22:29;;;;;;;;;22.50;18.75;;;;;22.27;52.38;100753.19;5063234;28;45284;-66
2022/06/22 09:25:05;;;;;;;;;21.50;18.25;;;;;22.34;52.33;100758.75;5039944;28;45471;-67
2022/06/22 09:27:48;;;;;;;;;18.25;17.75;;;;;22.40;52.38;100749.19;5062827;28;45442;-66
2022/06/22 09:30:47;;;;;;;;;17.50;17.00;;;;;22.43;52.36;100749.69;5063045;28;45181;-67
2022/06/22 09:33:31;;;;;;;;;19.25;15.25;;;;;22.54;52.26;100753.91;5063029;28;45391;-66
2022/06/22 09:36:29;;;;;;;;;18.50;16.00;;;;;22.57;52.24;100750.88;5062965;28;45351;-67
2022/06/22 09:39:19;;;;;;;;;16.75;15.00;;;;;22.54;52.17;100752.06;5062647;28;45457;-66
2022/06/22 09:41:47;;;;;;;;;23.25;16.75;;;;;22.54;52.52;100756.59;5062744;28;45362;-66
2022/06/22 09:44:30;;;;;;;;;20.75;14.00;;;;;22.52;52.24;100758.59;5062876;28;46337;-66
2022/06/22 09:47:17;;;;;;;;;18.75;18.50;;;;;22.52;52.25;100755.94;5061475;28;45375;-66
2022/06/22 09:49:57;;;;;;;;;19.00;17.25;;;;;22.53;52.22;100758.44;5062813;28;45513;-66
2022/06/22 09:53:13;;;;;;;;;23.00;17.00;;;;;22.54;51.95;100762.78;5063125;28;45225;-66
2022/06/22 09:56:33;;;;;;;;;19.25;16.75;;;;;22.57;51.99;100753.56;5060804;28;45521;-66
2022/06/22 09:59:02;;;;;;;;;22.75;20.00;;;;;22.57;51.96;100754.38;5053390;28;45354;-66
2022/06/22 10:02:06;;;;;;;;;21.50;18.50;;;;;22.57;52.15;100758.94;5062422;28;46457;-66
2022/06/22 10:04:34;;;;;;;;;22.75;19.75;;;;;22.58;52.08;100757.91;5062230;28;45232;-66
2022/06/22 10:07:05;;;;;;;;;18.50;18.50;;;;;22.64;52.09;100759.94;5062238;28;46107;-66
2022/06/22 10:10:08;;;;;;;;;21.25;18.00;;;;;22.67;52.06;100759.63;5062275;28;45241;-66
2022/06/22 10:12:53;;;;;;;;;19.50;16.00;;;;;22.70;52.04;100753.06;5062073;28;45355;-66
2022/06/22 10:15:43;;;;;;;;;22.00;18.75;;;;;22.75;52.01;100758.72;5062033;28;45346;-66
2022/06/22 10:18:15;;;;;;;;;21.00;17.50;;;;;22.76;52.01;100763.13;5062185;28;45383;-66
2022/06/22 10:20:59;;;;;;;;;25.00;18.25;;;;;22.76;52.07;100761.28;5055209;28;46578;-66
2022/06/22 10:23:40;;;;;;;;;27.00;25.00;;;;;22.78;52.22;100751.19;5062095;28;45443;-66
2022/06/22 10:26:41;;;;;;;;;14.50;14.00;;;;;22.86;51.70;100753.06;5061864;28;45334;-66
2022/06/22 10:29:30;;;;;;;;;23.25;18.75;;;;;22.89;52.03;100744.66;5062130;28;45453;-66
2022/06/22 10:31:58;;;;;;;;;21.50;18.75;;;;;22.96;52.11;100752.88;5061738;28;45326;-66
2022/06/22 10:34:32;;;;;;;;;19.25;16.50;;;;;23.00;52.22;100759.59;5062027;28;45322;-66
2022/06/22 10:37:37;;;;;;;;;17.50;16.50;;;;;23.01;51.86;100753.22;5061872;28;45339;-66
2022/06/22 10:40:03;;;;;;;;;23.00;22.50;;;;;23.01;51.95;100756.72;5061433;28;45298;-66
2022/06/22 10:46:01;;;;;;;;;20.50;19.75;;;;;23.07;51.86;100748.00;5061689;28;45322;-66
2022/06/22 10:48:27;;;;;;;;;24.50;20.50;;;;;23.08;51.83;100749.66;5061216;28;45559;-66
2022/06/22 10:51:14;;;;;;;;;17.25;16.75;;;;;23.09;51.71;100737.91;5061427;28;46043;-66
2022/06/22 10:54:04;;;;;;;;;21.00;19.00;;;;;23.13;52.04;100741.91;5061798;28;45323;-66
2022/06/22 10:57:23;;;;;;;;;18.75;17.75;;;;;23.26;51.88;100732.47;5060931;28;45237;-65
2022/06/22 11:00:07;;;;;;;;;18.75;18.25;;;;;23.40;51.96;100729.06;5039352;28;45364;-65
2022/06/22 11:03:00;;;;;;;;;24.50;19.75;;;;;23.49;52.12;100724.50;5059546;28;45380;-66
2022/06/22 11:05:56;;;;;;;;;22.25;20.25;;;;;23.58;52.02;100723.44;5061566;28;45472;-66
2022/06/22 11:08:31;;;;;;;;;23.00;19.50;;;;;23.64;51.64;100714.69;5061712;28;45375;-66
2022/06/22 11:11:20;;;;;;;;;21.75;20.00;;;;;23.76;52.02;100712.44;5061480;28;45377;-65
2022/06/22 11:13:59;;;;;;;;;24.00;21.50;;;;;23.92;52.01;100713.16;5061489;28;46232;-66
2022/06/22 11:16:59;;;;;;;;;21.75;18.50;;;;;24.12;51.57;100713.53;5061198;28;45224;-66
2022/06/22 11:20:02;;;;;;;;;25.50;23.50;;;;;24.31;51.66;100717.59;5066202;27;45293;-66
2022/06/22 11:22:35;;;;;;;;;22.75;19.25;;;;;24.54;52.00;100709.53;5061068;28;45264;-67
2022/06/22 11:30:48;;;;;;;;;25.50;19.75;;;;;24.72;51.67;100718.09;5061031;28;45525;-67
2022/06/22 11:31:18;;;;;;;;;21.00;18.25;;;;;25.03;51.88;100725.22;5060543;28;45224;-67
2022/06/22 11:34:17;;;;;;;;;22.00;19.00;;;;;25.18;51.62;100720.66;5060385;28;45473;-66
2022/06/22 11:36:52;;;;;;;;;19.25;19.25;;;;;25.22;51.47;100724.66;5061045;28;46441;-66
2022/06/22 11:39:44;;;;;;;;;18.50;15.75;;;;;25.19;51.08;100724.19;5060497;28;45373;-66
2022/06/22 11:42:10;;;;;;;;;21.25;16.50;;;;;25.17;51.45;100719.00;5060020;28;45190;-66
2022/06/22 11:48:05;;;;;;;;;20.75;18.00;;;;;25.14;51.70;100727.47;5060594;28;45440;-67
2022/06/22 11:51:04;;;;;;;;;21.25;20.25;;;;;25.14;51.12;100727.47;5060614;28;45262;-66
2022/06/22 11:53:29;;;;;;;;;15.25;15.00;;;;;25.11;51.27;100725.13;5060636;28;45280;-66
2022/06/22 11:56:14;;;;;;;;;21.00;15.75;;;;;25.04;51.67;100721.50;5060812;28;45441;-66
2022/06/22 11:59:11;;;;;;;;;16.75;16.75;;;;;24.97;51.39;100721.38;5060748;28;46088;-66
2022/06/22 12:01:58;;;;;;;;;20.00;16.50;;;;;24.91;51.79;100715.91;5055634;28;45470;-66
2022/06/22 12:04:45;;;;;;;;;21.50;18.50;;;;;24.87;51.57;100720.81;5060327;28;45291;-66
2022/06/22 12:07:28;;;;;;;;;21.00;18.75;;;;;24.83;51.86;100715.97;5060905;28;45394;-66
2022/06/22 12:10:23;;;;;;;;;17.50;16.50;;;;;24.77;51.30;100715.69;5060464;28;45430;-66
2022/06/22 12:13:11;;;;;;;;;21.25;17.25;;;;;24.75;51.92;100717.75;5060285;28;45339;-66
2022/06/22 12:16:19;;;;;;;;;22.50;18.50;;;;;24.68;51.85;100727.56;5060783;28;45438;-66
2022/06/22 12:18:50;;;;;;;;;18.00;17.00;;;;;24.63;51.29;100731.81;5065231;28;45455;-66